• Join FlightAware (Why Join?)
  • Login
  • US Flag 
04:10AM EDT


 

Airport Tracker/Info


-or-


 

Live Flight TrackerFlight Track Log ✈ DAL268 ✈ 01-Oct-2013 ✈ KJFK - LLBG / TLV

Flight Track Log - Related Links

Times and Time Zones

All times are in EDT time to prevent confusion due to time zone crossing. See the DAL268 flight status page for this flight to view local times or setup timezone preferences in your user account.

Time Position Orientation Groundspeed Altitude Reporting Facility
EDT Latitude Longitude Course Direction KTS MPH feet Rate Location/Type
09:08PM 40.6320 -73.7830 90° East  Level FlightAware
09:11PM 40.5833 -73.3417 90° East  Level FlightAware Approximate
09:12PM 40.5605 -73.1653 97° East  Level FlightAware Approximate
09:13PM 40.5573 -72.9855 57° Northeast  Level FlightAware Approximate
09:14PM 40.5958 -72.8127 66° East  Level FlightAware Approximate
09:26PM 40.6280 -73.7910 303° West 120 138  Level FlightAware
09:26PM 40.6350 -73.8080 298° West 175 201 960 Level FlightAware
09:26PM 40.6450 -73.8290 302° West 181 208 700 1,740 Climbing FlightAware
09:27PM 40.6470 -73.8390 285° West 183 211 900 1,380 Climbing FlightAware
09:27PM 40.6470 -73.8430 270° West 186 214 1,000 1,500 Climbing FlightAware
09:27PM 40.6460 -73.8530 262° West 192 221 1,200 1,080 Climbing FlightAware
09:27PM 40.6430 -73.8610 244° Southwest 201 231 1,300 1,080 Climbing FlightAware
09:27PM 40.6370 -73.8690 225° Southwest 211 243 1,500 1,140 Climbing FlightAware
09:27PM 40.6270 -73.8800 220° Southwest 223 257 1,700 1,140 Climbing FlightAware
09:27PM 40.6190 -73.8850 205° Southwest 234 269 1,900 960 Climbing FlightAware
09:27PM 40.6150 -73.8870 201° Southwest 240 276 1,900 480 Level FlightAware
09:28PM 40.6060 -73.8880 185° South 253 291 2,000 660 Climbing FlightAware
09:28PM 40.5960 -73.8870 176° South 264 304 2,100 660 Climbing FlightAware
09:28PM 40.5870 -73.8820 157° South 274 315 2,200 1,260 Climbing FlightAware
09:28PM 40.5750 -73.8690 141° Southeast 285 328 2,500 1,320 Climbing FlightAware
09:28PM 40.5700 -73.8600 126° Southeast 288 331 2,600 1,380 Climbing FlightAware
09:28PM 40.5640 -73.8440 116° Southeast 294 338 2,900 1,860 Climbing FlightAware
09:28PM 40.5600 -73.8230 104° East 300 345 3,300 2,100 Climbing FlightAware
09:29PM 40.5600 -73.7940 90° East 301 346 3,900 2,640 Climbing FlightAware
09:29PM 40.5620 -73.7570 86° East 301 346 4,900 2,580 Climbing FlightAware
09:29PM 40.5620 -73.7220 90° East 310 357 5,600 2,220 Climbing FlightAware
09:30PM 40.5620 -73.6830 90° East 316 364 6,400 2,400 Climbing FlightAware
09:30PM 40.5620 -73.6280 90° East 322 371 7,600 2,580 Climbing FlightAware
09:31PM 40.5600 -73.5880 94° East 321 369 8,500 2,820 Climbing FlightAware
09:31PM 40.5590 -73.5490 92° East 319 367 9,500 2,040 Climbing FlightAware
09:32PM 40.5590 -73.4740 90° East 344 396 10,500 1,380 Climbing FlightAware
09:32PM 40.5570 -73.3990 92° East 372 428 11,200 1,020 Climbing FlightAware
09:33PM 40.5560 -73.3180 91° East 402 463 11,700 960 Climbing FlightAware
09:33PM 40.5540 -73.2250 92° East 428 493 12,400 1,380 Climbing FlightAware
09:34PM 40.5520 -73.1300 92° East 444 511 13,400 1,860 Climbing FlightAware
09:34PM 40.5505 -73.0706 92° East 452 520 14,200 2,040 Climbing FlightAware ADS-B (KSNC)
09:35PM 40.5483 -72.9764 92° East 455 524 15,300 1,920 Climbing FlightAware ADS-B (KSNC)
09:35PM 40.5455 -72.8868 92° East 461 531 16,400 1,860 Climbing FlightAware ADS-B (KSNC)
09:36PM 40.5429 -72.7986 92° East 467 537 17,300 1,740 Climbing FlightAware ADS-B (KSNC)
09:36PM 40.5404 -72.7053 92° East 473 544 18,300 1,620 Climbing FlightAware ADS-B (KSNC)
09:37PM 40.5382 -72.5987 92° East 480 552 19,300 1,380 Climbing FlightAware ADS-B (KSNC)
09:37PM 40.5425 -72.5331 85° East 484 557 19,700 1,200 Climbing FlightAware ADS-B (KSNC)
09:38PM 40.5600 -72.4521 74° East 484 557 20,300 1,320 Climbing FlightAware ADS-B (KSNC)
09:39PM 40.5950 -72.3380 68° East 490 564 21,300 1,260 Climbing FlightAware
09:39PM 40.6240 -72.2440 68° East 496 571 22,000 1,320 Climbing FlightAware
09:39PM 40.6292 -72.2267 68° East 498 573 22,500 1,500 Climbing FlightAware ADS-B (KSNC)
09:40PM 40.6900 -72.0290 68° East 503 579 23,900 1,320 Climbing FlightAware
09:41PM 40.7290 -71.8990 68° East 510 587 24,700 1,080 Climbing FlightAware
09:42PM 40.7580 -71.8030 68° East 515 593 25,300 960 Climbing FlightAware
09:42PM 40.7990 -71.6660 68° East 523 602 26,000 420 Climbing FlightAware
09:43PM 40.8330 -71.5570 68° East 524 603 26,000 1,140 Level FlightAware
09:44PM 40.8700 -71.4310 69° East 526 605 27,700 1,500 Climbing FlightAware
09:45PM 40.9050 -71.3150 68° East 526 605 28,100 300 Climbing FlightAware
09:45PM 40.9330 -71.2230 68° East 526 605 28,100  Level FlightAware
09:46PM 40.9610 -71.1320 68° East 526 605 28,100 1,860 Level FlightAware
09:47PM 41.0240 -70.9120 69° East 517 595 31,000 1,200 Climbing FlightAware
09:48PM 41.0939 -70.6769 69° East 522 601 30,900 -60 Descending Boston Center
09:49PM 41.1450 -70.5000 69° East 518 596 30,900  Level Boston Center
09:50PM 41.1961 -70.3233 69° East 517 595 30,900  Level Boston Center
09:51PM 41.2461 -70.1467 69° East 515 593 30,900  Level Boston Center
09:52PM 41.2778 -69.9761 76° East 521 600 30,900  Level Boston Center
09:53PM 41.2706 -69.7783 93° East 535 616 30,900  Level Boston Center
09:54PM 41.2594 -69.5447 94° East 530 610 30,900  Level Boston Center
09:55PM 41.2533 -69.3783 93° East 528 608 30,900  Level Boston Center
09:56PM 41.2436 -69.1839 94° East 530 610 30,900  Level Boston Center
09:57PM 41.2319 -68.9514 94° East 529 609 30,900  Level Boston Center
09:58PM 41.2233 -68.7572 93° East 528 608 30,900  Level Boston Center
09:59PM 41.2125 -68.5650 94° East 526 605 30,900  Level Boston Center
10:00PM 41.2025 -68.3719 94° East 527 606 30,900  Level Boston Center
10:01PM 41.1911 -68.1781 94° East 528 608 30,900  Level Boston Center
10:02PM 41.1781 -67.9839 95° East 529 609 30,900  Level Boston Center
10:03PM 41.1667 -67.7906 94° East 528 608 30,900  Level Boston Center
10:04PM 41.1539 -67.5953 95° East 530 610 30,900  Level Boston Center
10:08PM 41.1167 -67.0000 78° East 518 596 31,000  Climbing New York Oceanic (ODAPS)
10:10PM 41.1798 -66.5526 95° East 521 600 30,900 -60 Descending FlightAware ADS-B (CYQI)
10:10PM 41.1958 -66.4500 78° East 521 600 30,900  Level FlightAware ADS-B (CYQI)
10:11PM 41.2092 -66.3616 79° East 520 598 30,900 60 Level FlightAware ADS-B (CYQI)
10:11PM 41.2287 -66.2328 79° East 522 601 31,000 60 Climbing FlightAware ADS-B (CYQI)
10:12PM 41.2462 -66.1170 79° East 524 603 31,000 -120 Level FlightAware ADS-B (CYQI)
10:13PM 41.2690 -65.9632 79° East 525 604 30,900 -120 Descending FlightAware ADS-B (CYQI)
10:13PM 41.2833 -65.8665 79° East 525 604 30,900  Level FlightAware ADS-B (CYQI)
10:14PM 41.2965 -65.7757 78° East 525 604 30,900  Level FlightAware ADS-B (CYQI)
10:15PM 41.3206 -65.6103 79° East 526 605 30,900  Level FlightAware ADS-B (CYQI)
10:17PM 47.3730 -64.4000 North 30,900  Level FlightAware
10:18PM 41.3980 -65.0690 185° South 528 608 31,000 60 Climbing FlightAware
10:18PM 41.4150 -64.9510 79° East 528 608 31,000  Level FlightAware
10:19PM 41.4310 -64.8260 80° East 529 609 31,000 -120 Level FlightAware
10:19PM 41.4440 -64.7330 79° East 528 608 30,900 -120 Descending FlightAware
10:20PM 41.4610 -64.6080 80° East 527 606 30,900  Level FlightAware
10:21PM 41.4770 -64.4880 80° East 527 606 30,900  Level FlightAware
10:21PM 41.4910 -64.3870 79° East 527 606 30,900  Level FlightAware
10:22PM 41.5040 -64.2860 80° East 527 606 30,900  Level FlightAware
10:23PM 41.5280 -64.1060 80° East 526 605 30,900  Level FlightAware
10:23PM 41.5410 -64.0080 80° East 526 605 30,900  Level FlightAware
10:23PM 47.6480 -61.2940 17° North 30,900  Level FlightAware
10:24PM 41.5550 -63.8980 198° South 524 603 30,900  Level FlightAware
10:24PM 41.5690 -63.7920 80° East 523 602 30,900  Level FlightAware
10:25PM 41.5820 -63.6890 80° East 523 602 30,900  Level FlightAware
10:25PM 41.5950 -63.5890 80° East 523 602 30,900  Level FlightAware
10:26PM 41.6190 -63.3900 81° East 520 598 30,900  Level FlightAware
10:27PM 41.6310 -63.2940 80° East 518 596 30,900 60 Level FlightAware
10:27PM 41.6450 -63.1760 81° East 518 596 31,000  Climbing FlightAware
10:28PM 41.6590 -63.0670 80° East 518 596 30,900 -120 Descending FlightAware
10:29PM 41.6700 -62.9700 81° East 518 596 30,900  Level FlightAware
10:29PM 41.6860 -62.8400 81° East 761 876 30,900  Level FlightAware
10:32PM 41.7407 -62.3895 81° East  Level FlightAware Approximate
10:33PM 41.7639 -62.1935 81° East  Level FlightAware Approximate
10:34PM 41.7868 -61.9972 81° East  Level FlightAware Approximate
10:35PM 41.8094 -61.8009 81° East  Level FlightAware Approximate
10:36PM 41.8316 -61.6044 81° East  Level FlightAware Approximate
10:37PM 41.8535 -61.4077 81° East  Level FlightAware Approximate
10:38PM 41.8750 -61.2109 82° East  Level FlightAware Approximate
10:39PM 41.8963 -61.0140 82° East  Level FlightAware Approximate
10:40PM 41.9171 -60.8170 82° East  Level FlightAware Approximate
10:40PM 41.9167 -60.9167 83° East 622 716 31,000  Level New York Oceanic (ODAPS)
10:41PM 41.9377 -60.6199 82° East  Level FlightAware Approximate
10:42PM 41.9579 -60.4226 82° East  Level FlightAware Approximate
10:43PM 41.9778 -60.2252 82° East  Level FlightAware Approximate
10:44PM 41.9973 -60.0276 82° East  Level FlightAware Approximate
10:45PM 42.0404 -59.8373 71° East  Level FlightAware Approximate
10:46PM 42.0945 -59.6207 72° East 622 716 31,000  Level FlightAware Transoceanic
10:47PM 42.1413 -59.4306 72° East 622 716 31,000  Level FlightAware Transoceanic
10:48PM 42.1877 -59.2402 72° East 622 716 31,000 1,620 Level FlightAware Transoceanic
10:48PM 42.0000 -60.0000 71° East 526 605 33,000  Climbing New York Oceanic (ODAPS)
10:49PM 42.2339 -59.0495 72° East 622 716 31,000 -1,140 Descending FlightAware Transoceanic
10:50PM 42.2797 -58.8586 72° East 622 716 31,000  Level FlightAware Transoceanic
10:51PM 42.3252 -58.6674 72° East 622 716 31,000  Level FlightAware Transoceanic
10:52PM 42.3704 -58.4759 72° East 622 716 31,000  Level FlightAware Transoceanic
10:53PM 42.4153 -58.2842 72° East 622 716 31,000 960 Level FlightAware Transoceanic
10:54PM 42.4513 -58.1291 73° East 526 605 33,000 960 Climbing FlightAware Transoceanic
10:55PM 42.4948 -57.9405 73° East 526 605 33,000  Level FlightAware Transoceanic
10:56PM 42.5379 -57.7517 73° East 526 605 33,000  Level FlightAware Transoceanic
10:57PM 42.5808 -57.5627 73° East 526 605 33,000  Level FlightAware Transoceanic
10:58PM 42.6233 -57.3733 73° East 526 605 33,000  Level FlightAware Transoceanic
10:59PM 42.6655 -57.1837 73° East 526 605 33,000  Level FlightAware Transoceanic
11:00PM 42.7074 -56.9939 73° East 526 605 33,000  Level FlightAware Transoceanic
11:01PM 42.7490 -56.8038 73° East 526 605 33,000  Level FlightAware Transoceanic
11:02PM 42.7902 -56.6134 74° East 526 605 33,000  Level FlightAware Transoceanic
11:03PM 42.8312 -56.4228 74° East 526 605 33,000  Level FlightAware Transoceanic
11:04PM 42.8718 -56.2320 74° East 526 605 33,000  Level FlightAware Transoceanic
11:05PM 42.9122 -56.0409 74° East 526 605 33,000  Level FlightAware Transoceanic
11:06PM 42.9521 -55.8495 74° East 526 605 33,000  Level FlightAware Transoceanic
11:07PM 42.9918 -55.6579 74° East 526 605 33,000  Level FlightAware Transoceanic
11:08PM 43.0312 -55.4660 74° East 526 605 33,000  Level FlightAware Transoceanic
11:09PM 43.0702 -55.2739 75° East 526 605 33,000  Level FlightAware Transoceanic
11:10PM 43.1089 -55.0816 75° East 526 605 33,000  Level FlightAware Transoceanic
11:11PM 43.1473 -54.8890 75° East 526 605 33,000  Level FlightAware Transoceanic
11:12PM 43.1854 -54.6962 75° East 526 605 33,000  Level FlightAware Transoceanic
11:13PM 43.2231 -54.5031 75° East 526 605 33,000  Level FlightAware Transoceanic
11:14PM 43.2606 -54.3098 75° East 526 605 33,000  Level FlightAware Transoceanic
11:15PM 43.2977 -54.1163 75° East 526 605 33,000  Level FlightAware Transoceanic
11:16PM 43.3344 -53.9225 75° East 526 605 33,000  Level FlightAware Transoceanic
11:17PM 43.3709 -53.7285 76° East 526 605 33,000  Level FlightAware Transoceanic
11:18PM 43.4070 -53.5342 76° East 526 605 33,000  Level FlightAware Transoceanic
11:19PM 43.4428 -53.3398 76° East 526 605 33,000  Level FlightAware Transoceanic
11:20PM 43.4782 -53.1451 76° East 526 605 33,000  Level FlightAware Transoceanic
11:21PM 43.5134 -52.9501 76° East 526 605 33,000  Level FlightAware Transoceanic
11:22PM 43.5481 -52.7550 76° East 526 605 33,000  Level FlightAware Transoceanic
11:23PM 43.5826 -52.5596 76° East 526 605 33,000  Level FlightAware Transoceanic
11:24PM 43.6167 -52.3640 77° East 526 605 33,000  Level FlightAware Transoceanic
11:25PM 43.6505 -52.1682 77° East 526 605 33,000  Level FlightAware Transoceanic
11:26PM 43.6840 -51.9721 77° East 526 605 33,000  Level FlightAware Transoceanic
11:27PM 43.7171 -51.7759 77° East 526 605 33,000  Level FlightAware Transoceanic
11:28PM 43.7499 -51.5794 77° East 526 605 33,000  Level FlightAware Transoceanic
11:29PM 43.7823 -51.3827 77° East 526 605 33,000  Level FlightAware Transoceanic
11:30PM 43.8145 -51.1858 77° East 526 605 33,000  Level FlightAware Transoceanic
11:31PM 43.8462 -50.9887 77° East 526 605 33,000  Level FlightAware Transoceanic
11:32PM 43.8777 -50.7914 78° East 526 605 33,000  Level FlightAware Transoceanic
11:33PM 43.9088 -50.5938 78° East 526 605 33,000  Level FlightAware Transoceanic
11:34PM 43.9395 -50.3961 78° East 526 605 33,000  Level FlightAware Transoceanic
11:35PM 43.9699 -50.1981 78° East 526 605 33,000  Level FlightAware Transoceanic
11:36PM 44.0000 -50.0000 71° East 526 605 33,000  Level FlightAware Transoceanic
11:37PM 44.0484 -49.8072 71° East 526 605 33,000  Level FlightAware Transoceanic
11:38PM 44.0964 -49.6140 71° East 526 605 33,000  Level FlightAware Transoceanic
11:39PM 44.1441 -49.4205 71° East 526 605 33,000  Level FlightAware Transoceanic
11:40PM 44.1915 -49.2267 71° East 526 605 33,000  Level FlightAware Transoceanic
11:41PM 44.2386 -49.0326 71° East 526 605 33,000  Level FlightAware Transoceanic
11:42PM 44.2853 -48.8382 72° East 526 605 33,000  Level FlightAware Transoceanic
11:43PM 44.3317 -48.6435 72° East 526 605 33,000  Level FlightAware Transoceanic
11:44PM 44.3778 -48.4485 72° East 526 605 33,000  Level FlightAware Transoceanic
11:45PM 44.4235 -48.2532 72° East 526 605 33,000  Level FlightAware Transoceanic
11:46PM 44.4689 -48.0576 72° East 526 605 33,000  Level FlightAware Transoceanic
11:47PM 44.5140 -47.8616 72° East 526 605 33,000  Level FlightAware Transoceanic
11:48PM 44.5587 -47.6654 72° East 526 605 33,000  Level FlightAware Transoceanic
11:49PM 44.6031 -47.4689 72° East 526 605 33,000  Level FlightAware Transoceanic
11:50PM 44.6471 -47.2720 73° East 526 605 33,000  Level FlightAware Transoceanic
11:51PM 44.6908 -47.0749 73° East 526 605 33,000  Level FlightAware Transoceanic
11:52PM 44.7342 -46.8775 73° East 526 605 33,000  Level FlightAware Transoceanic
11:53PM 44.7773 -46.6797 73° East 526 605 33,000  Level FlightAware Transoceanic
11:54PM 44.8200 -46.4817 73° East 526 605 33,000  Level FlightAware Transoceanic
11:55PM 44.8623 -46.2834 73° East 526 605 33,000  Level FlightAware Transoceanic
11:56PM 44.9043 -46.0848 73° East 526 605 33,000  Level FlightAware Transoceanic
11:57PM 44.9460 -45.8859 74° East 526 605 33,000  Level FlightAware Transoceanic
11:58PM 44.9873 -45.6867 74° East 526 605 33,000  Level FlightAware Transoceanic
11:59PM 45.0283 -45.4873 74° East 526 605 33,000  Level FlightAware Transoceanic
12:00AM 45.0689 -45.2875 74° East 526 605 33,000  Level FlightAware Transoceanic
12:01AM 45.1092 -45.0875 74° East 526 605 33,000  Level FlightAware Transoceanic
12:02AM 45.1491 -44.8872 74° East 526 605 33,000  Level FlightAware Transoceanic
12:03AM 45.1887 -44.6866 74° East 526 605 33,000  Level FlightAware Transoceanic
12:04AM 45.2279 -44.4857 75° East 526 605 33,000  Level FlightAware Transoceanic
12:05AM 45.2668 -44.2846 75° East 526 605 33,000  Level FlightAware Transoceanic
12:06AM 45.3053 -44.0831 75° East 526 605 33,000  Level FlightAware Transoceanic
12:07AM 45.3435 -43.8815 75° East 526 605 33,000  Level FlightAware Transoceanic
12:08AM 45.3813 -43.6795 75° East 526 605 33,000  Level FlightAware Transoceanic
12:09AM 45.4187 -43.4773 75° East 526 605 33,000  Level FlightAware Transoceanic
12:10AM 45.4558 -43.2748 75° East 526 605 33,000  Level FlightAware Transoceanic
12:11AM 45.4926 -43.0720 76° East 526 605 33,000  Level FlightAware Transoceanic
12:12AM 45.5289 -42.8690 76° East 526 605 33,000  Level FlightAware Transoceanic
12:13AM 45.5650 -42.6657 76° East 526 605 33,000  Level FlightAware Transoceanic
12:14AM 45.6006 -42.4621 76° East 526 605 33,000  Level FlightAware Transoceanic
12:15AM 45.6359 -42.2583 76° East 526 605 33,000  Level FlightAware Transoceanic
12:16AM 45.6708 -42.0542 76° East 526 605 33,000  Level FlightAware Transoceanic
12:17AM 45.7054 -41.8499 76° East 526 605 33,000  Level FlightAware Transoceanic
12:18AM 45.7396 -41.6454 77° East 526 605 33,000  Level FlightAware Transoceanic
12:19AM 45.7734 -41.4405 77° East 526 605 33,000  Level FlightAware Transoceanic
12:20AM 45.8069 -41.2355 77° East 526 605 33,000  Level FlightAware Transoceanic
12:21AM 45.8400 -41.0302 77° East 526 605 33,000  Level FlightAware Transoceanic
12:22AM 45.8728 -40.8246 77° East 526 605 33,000  Level FlightAware Transoceanic
12:23AM 45.9051 -40.6188 77° East 526 605 33,000  Level FlightAware Transoceanic
12:24AM 45.9371 -40.4128 77° East 526 605 33,000  Level FlightAware Transoceanic
12:25AM 45.9688 -40.2065 78° East 526 605 33,000  Level FlightAware Transoceanic
12:26AM 45.9999 -40.0008 78° East  Level FlightAware Approximate
12:27AM 46.0309 -39.7949 78° East  Level FlightAware Approximate
12:28AM 46.0089 -39.7914 86° East  Level FlightAware Approximate
12:29AM 46.0175 -39.5811 87° East  Level FlightAware Approximate
12:30AM 46.0258 -39.3708 87° East  Level FlightAware Approximate
12:31AM 46.0336 -39.1604 87° East  Level FlightAware Approximate
12:31AM 46.0000 -40.0000 86° East 520 598 33,000  Level ETMS Enhanced Traffic Management System
12:32AM 46.0411 -38.9499 87° East  Level FlightAware Approximate
12:33AM 46.0481 -38.7398 87° East  Level FlightAware Approximate
12:34AM 46.0548 -38.5295 87° East  Level FlightAware Approximate
12:35AM 46.0611 -38.3193 87° East  Level FlightAware Approximate
12:36AM 46.0670 -38.1090 88° East  Level FlightAware Approximate
12:37AM 46.0725 -37.8987 88° East  Level FlightAware Approximate
12:38AM 46.0548 -38.5298 86° East  Level FlightAware Approximate
12:39AM 46.0611 -38.3195 87° East  Level FlightAware Approximate
12:40AM 46.0670 -38.1092 88° East  Level FlightAware Approximate
12:41AM 46.0725 -37.8989 88° East  Level FlightAware Approximate
12:42AM 46.0776 -37.6885 88° East  Level FlightAware Approximate
12:43AM 46.0824 -37.4781 88° East  Level FlightAware Approximate
12:44AM 46.0867 -37.2676 88° East  Level FlightAware Approximate
12:45AM 46.0907 -37.0571 88° East  Level FlightAware Approximate
12:46AM 46.0943 -36.8466 89° East  Level FlightAware Approximate
12:47AM 46.0975 -36.6361 89° East  Level FlightAware Approximate
12:48AM 46.1003 -36.4255 89° East  Level FlightAware Approximate
12:49AM 46.1027 -36.2149 89° East  Level FlightAware Approximate
12:50AM 46.1048 -36.0043 89° East  Level FlightAware Approximate
12:51AM 46.1064 -35.7937 89° East  Level FlightAware Approximate
12:52AM 46.1077 -35.5830 89° East  Level FlightAware Approximate
12:53AM 46.1085 -35.3724 90° East  Level FlightAware Approximate
12:54AM 46.1090 -35.1618 90° East  Level FlightAware Approximate
12:55AM 46.1091 -34.9511 90° East  Level FlightAware Approximate
12:56AM 46.1088 -34.7405 90° East  Level FlightAware Approximate
12:57AM 46.1082 -34.5298 90° East  Level FlightAware Approximate
12:58AM 46.1071 -34.3192 90° East  Level FlightAware Approximate
12:59AM 46.1057 -34.1086 90° East  Level FlightAware Approximate
01:00AM 46.1039 -33.8980 91° East  Level FlightAware Approximate
01:01AM 46.1016 -33.6874 91° East  Level FlightAware Approximate
01:02AM 46.0990 -33.4768 91° East  Level FlightAware Approximate
01:03AM 46.0960 -33.2662 91° East  Level FlightAware Approximate
01:04AM 46.0927 -33.0557 91° East  Level FlightAware Approximate
01:05AM 46.0889 -32.8452 91° East  Level FlightAware Approximate
01:06AM 46.0848 -32.6347 92° East  Level FlightAware Approximate
01:07AM 46.0802 -32.4243 92° East  Level FlightAware Approximate
01:08AM 46.0753 -32.2139 92° East  Level FlightAware Approximate
01:09AM 46.0700 -32.0035 92° East  Level FlightAware Approximate
01:10AM 46.0643 -31.7932 92° East  Level FlightAware Approximate
01:11AM 46.0582 -31.5829 92° East  Level FlightAware Approximate
01:12AM 46.0517 -31.3727 92° East  Level FlightAware Approximate
01:13AM 46.0449 -31.1625 93° East  Level FlightAware Approximate
01:14AM 46.0377 -30.9524 93° East  Level FlightAware Approximate
01:15AM 46.0300 -30.7423 93° East  Level FlightAware Approximate
01:16AM 46.0220 -30.5323 93° East  Level FlightAware Approximate
01:17AM 46.0136 -30.3223 93° East  Level FlightAware Approximate
01:18AM 46.0049 -30.1124 93° East  Level FlightAware Approximate
01:18AM 46.0000 -30.0000 95° East 519 597 33,000  Level ETMS Enhanced Traffic Management System
01:19AM 45.9946 -29.9027 95° East  Level FlightAware Approximate
01:20AM 45.9827 -29.6932 95° East  Level FlightAware Approximate
01:21AM 45.9704 -29.4838 95° East  Level FlightAware Approximate
01:22AM 45.9578 -29.2749 95° East  Level FlightAware Approximate
01:23AM 45.9448 -29.0660 95° East  Level FlightAware Approximate
01:24AM 45.9245 -28.7532 95° East  Level FlightAware Approximate
01:25AM 45.9106 -28.5458 95° East  Level FlightAware Approximate
01:26AM 45.8964 -28.3384 96° East  Level FlightAware Approximate
01:27AM 45.8817 -28.1312 96° East  Level FlightAware Approximate
01:28AM 45.8667 -27.9241 96° East  Level FlightAware Approximate
01:29AM 45.8513 -27.7171 96° East  Level FlightAware Approximate
01:30AM 45.8355 -27.5102 96° East  Level FlightAware Approximate
01:31AM 45.8194 -27.3034 96° East  Level FlightAware Approximate
01:32AM 45.8029 -27.0967 96° East  Level FlightAware Approximate
01:33AM 45.7860 -26.8902 97° East  Level FlightAware Approximate
01:34AM 45.7687 -26.6838 97° East  Level FlightAware Approximate
01:35AM 45.7511 -26.4775 97° East  Level FlightAware Approximate
01:36AM 45.7331 -26.2714 97° East  Level FlightAware Approximate
01:37AM 45.7147 -26.0653 97° East  Level FlightAware Approximate
01:38AM 45.6960 -25.8595 97° East  Level FlightAware Approximate
01:39AM 45.6769 -25.6537 97° East  Level FlightAware Approximate
01:40AM 45.6574 -25.4481 98° East  Level FlightAware Approximate
01:41AM 45.6376 -25.2427 98° East  Level FlightAware Approximate
01:42AM 45.6174 -25.0374 98° East  Level FlightAware Approximate
01:43AM 45.5968 -24.8322 98° East  Level FlightAware Approximate
01:44AM 45.5758 -24.6272 98° East  Level FlightAware Approximate
01:45AM 45.5545 -24.4224 98° East  Level FlightAware Approximate
01:46AM 45.5328 -24.2177 99° East  Level FlightAware Approximate
01:47AM 45.5108 -24.0131 99° East  Level FlightAware Approximate
01:48AM 45.4884 -23.8088 99° East  Level FlightAware Approximate
01:49AM 45.4656 -23.6046 99° East  Level FlightAware Approximate
01:50AM 45.4425 -23.4005 99° East  Level FlightAware Approximate
01:51AM 45.4189 -23.1967 99° East  Level FlightAware Approximate
01:52AM 45.3951 -22.9930 99° East  Level FlightAware Approximate
01:53AM 45.3709 -22.7894 100° East  Level FlightAware Approximate
01:54AM 45.3463 -22.5861 100° East  Level FlightAware Approximate
01:55AM 45.3213 -22.3829 100° East  Level FlightAware Approximate
01:56AM 45.2960 -22.1799 100° East  Level FlightAware Approximate
01:57AM 45.2703 -21.9771 100° East  Level FlightAware Approximate
01:58AM 45.2443 -21.7745 100° East  Level FlightAware Approximate
01:59AM 45.2179 -21.5720 100° East  Level FlightAware Approximate
02:00AM 45.1912 -21.3698 101° East  Level FlightAware Approximate
02:01AM 45.1641 -21.1677 101° East  Level FlightAware Approximate
02:02AM 45.1367 -20.9658 101° East  Level FlightAware Approximate
02:03AM 45.1088 -20.7642 101° East  Level FlightAware Approximate
02:04AM 45.0807 -20.5627 101° East  Level FlightAware Approximate
02:05AM 45.0522 -20.3614 101° East  Level FlightAware Approximate
02:06AM 45.0233 -20.1604 101° East  Level FlightAware Approximate
02:07AM 44.9928 -19.9599 104° East  Level FlightAware Approximate
02:08AM 44.9569 -19.7613 104° East  Level FlightAware Approximate
02:09AM 44.9207 -19.5630 104° East  Level FlightAware Approximate
02:10AM 44.8842 -19.3649 105° East  Level FlightAware Approximate
02:11AM 44.8473 -19.1670 105° East  Level FlightAware Approximate
02:12AM 44.8101 -18.9695 105° East  Level FlightAware Approximate
02:13AM 44.7725 -18.7721 105° East  Level FlightAware Approximate
02:14AM 44.7345 -18.5747 105° East  Level FlightAware Approximate
02:15AM 44.6962 -18.3775 105° East  Level FlightAware Approximate
02:16AM 44.6575 -18.1805 105° East  Level FlightAware Approximate
02:17AM 44.6185 -17.9839 106° East  Level FlightAware Approximate
02:18AM 44.5791 -17.7875 106° East  Level FlightAware Approximate
02:19AM 44.5395 -17.5913 106° East  Level FlightAware Approximate
02:20AM 44.4994 -17.3955 106° East  Level FlightAware Approximate
02:21AM 44.4591 -17.1999 106° East  Level FlightAware Approximate
02:22AM 44.4184 -17.0045 106° East  Level FlightAware Approximate
02:23AM 44.3774 -16.8095 106° East  Level FlightAware Approximate
02:24AM 44.3360 -16.6147 106° East  Level FlightAware Approximate
02:25AM 44.2943 -16.4202 107° East  Level FlightAware Approximate
02:26AM 44.2523 -16.2259 107° East  Level FlightAware Approximate
02:27AM 44.2100 -16.0320 107° East  Level FlightAware Approximate
02:28AM 44.1674 -15.8383 107° East  Level FlightAware Approximate
02:29AM 44.1244 -15.6449 107° East  Level FlightAware Approximate
02:30AM 44.0811 -15.4518 107° East  Level FlightAware Approximate
02:31AM 44.0374 -15.2590 107° East  Level FlightAware Approximate
02:32AM 43.9935 -15.0665 108° East  Level FlightAware Approximate
02:33AM 43.9493 -14.8742 108° East  Level FlightAware Approximate
02:34AM 43.9049 -14.6821 108° East  Level FlightAware Approximate
02:35AM 43.8603 -14.4903 108° East  Level FlightAware Approximate
02:36AM 43.8153 -14.2987 108° East  Level FlightAware Approximate
02:37AM 43.7700 -14.1075 108° East  Level FlightAware Approximate
02:38AM 43.7244 -13.9166 108° East  Level FlightAware Approximate
02:39AM 43.6785 -13.7259 108° East  Level FlightAware Approximate
02:40AM 43.6322 -13.5356 108° East  Level FlightAware Approximate
02:41AM 43.5857 -13.3455 109° East  Level FlightAware Approximate
02:42AM 43.5388 -13.1558 109° East  Level FlightAware Approximate
02:43AM 43.4963 -12.9647 98° East  Level FlightAware Approximate
02:44AM 43.4750 -12.7667 98° East  Level FlightAware Approximate
02:45AM 43.4534 -12.5691 98° East  Level FlightAware Approximate
02:46AM 43.4315 -12.3716 99° East  Level FlightAware Approximate
02:47AM 43.4092 -12.1743 99° East  Level FlightAware Approximate
02:48AM 43.3866 -11.9772 99° East  Level FlightAware Approximate
02:49AM 43.3637 -11.7802 99° East  Level FlightAware Approximate
02:50AM 43.3404 -11.5833 99° East  Level FlightAware Approximate
02:51AM 43.3168 -11.3866 99° East  Level FlightAware Approximate
02:52AM 43.2928 -11.1900 99° East  Level FlightAware Approximate
02:53AM 43.2685 -10.9936 100° East  Level FlightAware Approximate
02:54AM 43.2439 -10.7974 100° East  Level FlightAware Approximate
02:55AM 43.2189 -10.6013 100° East  Level FlightAware Approximate
02:56AM 43.1936 -10.4054 100° East  Level FlightAware Approximate
02:57AM 43.1680 -10.2096 100° East  Level FlightAware Approximate
02:58AM 43.1421 -10.0140 100° East  Level FlightAware Approximate
02:58AM 43.1100 -9.7550 100° East 539 620 34,900  Level FlightAware
02:59AM 43.1158 -9.8186 100° East  Level FlightAware Approximate
02:59AM 43.0970 -9.6550 100° East 539 620 35,000  Level FlightAware
02:59AM 43.0800 -9.5240 100° East 536 617 35,800 660 Climbing FlightAware
03:00AM 43.0630 -9.4090 101° East 536 617 35,900 60 Climbing FlightAware
03:00AM 43.0490 -9.3070 101° East 536 617 35,900  Level FlightAware
03:01AM 43.0270 -9.1430 100° East 531 611 35,900  Level FlightAware
03:02AM 43.0120 -9.0320 100° East 531 611 35,900  Level FlightAware
03:02AM 42.9920 -8.8890 101° East 527 606 35,900 60 Level FlightAware
03:03AM 42.9730 -8.7620 102° East 526 605 36,000 60 Climbing FlightAware
03:04AM 42.9550 -8.6350 101° East 526 605 36,000 -120 Level FlightAware
03:04AM 42.9360 -8.5000 101° East 530 610 35,900 -120 Descending FlightAware
03:05AM 42.9220 -8.3660 98° East 535 616 35,900  Level FlightAware
03:06AM 42.9140 -8.2220 94° East 538 619 35,900  Level FlightAware
03:06AM 42.9060 -8.0650 94° East 538 619 35,900  Level FlightAware
03:07AM 42.9000 -7.9670 95° East 537 618 35,900  Level FlightAware
03:08AM 42.8920 -7.8380 95° East 537 618 35,900  Level FlightAware
03:08AM 42.8830 -7.7080 95° East 537 618 35,900  Level FlightAware
03:09AM 42.8750 -7.5870 95° East 538 619 35,900  Level FlightAware
03:10AM 42.8650 -7.4480 96° East 539 620 35,900  Level FlightAware
03:10AM 42.8570 -7.3300 95° East 539 620 35,900 60 Level FlightAware
03:11AM 42.8500 -7.2310 95° East 539 620 36,000  Climbing FlightAware
03:11AM 42.8390 -7.0840 96° East 539 620 35,900 -120 Descending FlightAware
03:12AM 42.8310 -6.9700 95° East 539 620 35,900  Level FlightAware
03:13AM 42.8190 -6.8100 96° East 541 623 35,900  Level FlightAware
03:13AM 42.8100 -6.6850 96° East 542 624 35,900  Level FlightAware
03:14AM 42.8010 -6.5710 96° East 541 623 35,900 60 Level FlightAware
03:14AM 42.7920 -6.4470 96° East 539 620 36,000  Climbing FlightAware
03:15AM 42.7810 -6.3150 96° East 538 619 35,900 -120 Descending FlightAware
03:16AM 42.7720 -6.1990 96° East 537 618 35,900  Level FlightAware
03:16AM 42.7610 -6.0630 96° East 537 618 35,900 60 Level FlightAware
03:17AM 42.7530 -5.9600 96° East 537 618 36,000  Climbing FlightAware
03:17AM 42.7430 -5.8450 97° East 538 619 35,900 -120 Descending FlightAware
03:18AM 42.7330 -5.7280 97° East 538 619 35,900  Level FlightAware
03:19AM 42.7230 -5.6080 96° East 539 620 35,900  Level FlightAware
03:19AM 42.7130 -5.4910 97° East 540 621 35,900  Level FlightAware
03:20AM 42.7030 -5.3740 97° East 539 620 35,900  Level FlightAware
03:21AM 42.6900 -5.2280 97° East 538 619 35,900  Level FlightAware
03:21AM 42.6800 -5.1220 97° East 536 617 35,900  Level FlightAware
03:22AM 42.6700 -5.0070 97° East 534 615 35,900  Level FlightAware
03:22AM 42.6580 -4.8710 97° East 534 615 35,900  Level FlightAware
03:23AM 42.6490 -4.7750 97° East 533 613 35,900  Level FlightAware
03:23AM 42.6360 -4.6430 98° East 533 613 35,900  Level FlightAware
03:24AM 42.6250 -4.5310 98° East 530 610 35,900  Level FlightAware
03:25AM 42.6140 -4.4080 97° East 530 610 35,900  Level FlightAware
03:25AM 42.6010 -4.2770 98° East 530 610 35,900 60 Level FlightAware
03:26AM 42.5900 -4.1640 97° East 529 609 36,000  Climbing FlightAware
03:26AM 42.5780 -4.0470 98° East 528 608 35,900 -120 Descending FlightAware
03:27AM 42.5620 -3.8870 98° East 527 606 35,900  Level FlightAware
03:28AM 42.5490 -3.7600 98° East 527 606 35,900  Level FlightAware
03:29AM 42.5360 -3.6390 98° East 525 604 35,900 60 Level FlightAware
03:29AM 42.5250 -3.5250 97° East 525 604 36,000  Climbing FlightAware
03:30AM 42.5110 -3.3940 98° East 526 605 35,900 -120 Descending FlightAware
03:30AM 42.5000 -3.2980 99° East 526 605 35,900  Level FlightAware
03:31AM 42.4860 -3.1670 98° East 528 608 35,900  Level FlightAware
03:31AM 42.4790 -3.0980 98° East 529 609 35,900  Level FlightAware
03:32AM 42.4650 -2.9760 99° East 530 610 35,900  Level FlightAware
03:33AM 42.4500 -2.8700 101° East 529 609 35,900  Level FlightAware
03:33AM 42.4270 -2.7580 106° East 529 609 35,900 60 Level FlightAware
03:34AM 42.4020 -2.6370 106° East 530 610 36,000  Climbing FlightAware
03:35AM 42.3700 -2.4750 105° East 531 611 35,900 -120 Descending FlightAware
03:35AM 42.3500 -2.3760 105° East 531 611 35,900  Level FlightAware
03:36AM 42.3180 -2.2290 106° East 532 612 35,900  Level FlightAware
03:36AM 42.2960 -2.1300 107° East 532 612 35,900  Level FlightAware
03:37AM 42.2680 -1.9960 106° East 533 613 35,900  Level FlightAware
03:38AM 42.2470 -1.8980 106° East 533 613 35,900  Level FlightAware
03:38AM 42.2210 -1.7770 106° East 533 613 35,900  Level FlightAware
03:39AM 42.1970 -1.6650 106° East 533 613 35,900 60 Level FlightAware
03:39AM 42.1730 -1.5550 106° East 535 616 36,000  Climbing FlightAware
03:40AM 42.1490 -1.4470 107° East 536 617 35,900 -120 Descending FlightAware
03:41AM 42.1230 -1.3280 106° East 538 619 35,900  Level FlightAware
03:41AM 42.0980 -1.2150 107° East 540 621 35,900 60 Level FlightAware
03:42AM 42.0720 -1.0970 106° East 540 621 36,000  Climbing FlightAware
03:42AM 42.0480 -0.9910 107° East 542 624 35,900 -120 Descending FlightAware
03:43AM 42.0220 -0.8720 106° East 542 624 35,900  Level FlightAware
03:43AM 41.9980 -0.7660 107° East 542 624 35,900  Level FlightAware
03:44AM 41.9720 -0.6520 107° East 542 624 35,900  Level FlightAware
03:45AM 41.9450 -0.5320 107° East 542 624 35,900  Level FlightAware
03:45AM 41.9200 -0.4260 108° East 543 625 35,900  Level FlightAware
03:46AM 41.8970 -0.3260 107° East 543 625 35,900  Level FlightAware
03:46AM 41.8680 -0.2000 107° East 542 624 35,900  Level FlightAware
03:47AM 41.8430 -0.0900 107° East 542 624 35,900  Level FlightAware
03:47AM 41.8170 0.0210 107° East 542 624 35,900  Level FlightAware
03:48AM 41.7890 0.1400 107° East 543 625 35,900  Level FlightAware
03:49AM 41.7620 0.2540 108° East 543 625 35,900  Level FlightAware
03:49AM 41.7380 0.3550 108° East 543 625 35,900  Level FlightAware
03:50AM 41.7110 0.4680 108° East 543 625 35,900  Level FlightAware
03:50AM 41.6830 0.5860 108° East 543 625 35,900  Level FlightAware
03:51AM 41.6560 0.6990 108° East 542 624 35,900  Level FlightAware
03:52AM 41.6290 0.8010 109° East 543 625 35,900  Level FlightAware
03:52AM 41.5980 0.9180 109° East 543 625 35,900  Level FlightAware
03:53AM 41.5700 1.0220 110° East 544 626 35,900  Level FlightAware
03:53AM 41.5400 1.1380 109° East 545 627 35,900  Level FlightAware
03:54AM 41.5130 1.2570 107° East 547 629 35,900  Level FlightAware
03:54AM 41.4890 1.3620 107° East 547 629 35,900  Level FlightAware
03:55AM 41.4630 1.4750 107° East 548 631 35,900  Level FlightAware
03:56AM 41.4360 1.5920 107° East 549 632 35,900  Level FlightAware
03:56AM 41.4080 1.7090 108° East 550 633 35,900  Level FlightAware
03:57AM 41.3820 1.8120 109° East 551 634 35,900  Level FlightAware
03:57AM 41.3530 1.9260 109° East 550 633 35,900  Level FlightAware
03:58AM 41.3220 2.0470 109° East 551 634 35,900  Level FlightAware
03:59AM 41.3010 2.1500 105° East 554 638 35,900  Level FlightAware
03:59AM 41.2800 2.2730 103° East 555 639 35,900 60 Level FlightAware
04:00AM 41.2610 2.3900 102° East 554 638 36,000  Climbing FlightAware
04:00AM 41.2440 2.4950 102° East 555 639 35,900 -120 Descending FlightAware
04:01AM 41.2250 2.6150 102° East 555 639 35,900  Level FlightAware
04:02AM 41.2030 2.7440 103° East 555 639 35,900 60 Level FlightAware
04:02AM 41.1830 2.8590 103° East 555 639 36,000  Climbing FlightAware
04:03AM 41.1600 2.9950 103° East 556 640 35,900 -120 Descending FlightAware
04:04AM 41.1350 3.1380 103° East 556 640 35,900  Level FlightAware
04:04AM 41.1150 3.2510 103° East 555 639 35,900  Level FlightAware
04:05AM 41.0890 3.4020 103° East 554 638 35,900  Level FlightAware
04:06AM 41.0710 3.5040 103° East 554 638 35,900  Level FlightAware
04:06AM 41.0540 3.6050 103° East 554 638 35,900  Level FlightAware
04:07AM 41.0360 3.7060 103° East 554 638 35,900  Level FlightAware
04:07AM 41.0170 3.8130 103° East 554 638 35,900  Level FlightAware
04:08AM 41.0000 3.9150 102° East 554 638 35,900  Level FlightAware
04:09AM 40.9820 4.0160 103° East 554 638 35,900  Level FlightAware
04:10AM 40.9250 4.3100 104° East 549 632 35,900  Level FlightAware
04:10AM 40.9060 4.4150 103° East 549 632 35,900  Level FlightAware
04:11AM 40.8900 4.5100 103° East 549 632 35,900  Level FlightAware
04:12AM 40.8720 4.6100 103° East 549 632 35,900  Level FlightAware
04:12AM 40.8550 4.7100 103° East 549 632 35,900  Level FlightAware
04:13AM 40.8370 4.8100 103° East 549 632 35,900  Level FlightAware
04:13AM 40.8200 4.9100 103° East 549 632 35,900  Level FlightAware
04:14AM 40.8020 5.0130 103° East 549 632 35,900  Level FlightAware
04:15AM 40.7840 5.1130 103° East 549 632 35,900  Level FlightAware
04:15AM 40.7670 5.2130 103° East 549 632 35,900  Level FlightAware
04:16AM 40.7490 5.3160 103° East 549 632 35,900  Level FlightAware
04:16AM 40.7310 5.4160 103° East 549 632 35,900  Level FlightAware
04:17AM 40.8000 5.7430 74° East 35,900  Level FlightAware
04:17AM 40.7930 5.8610 94° East 552 635 35,900  Level FlightAware
04:18AM 40.7850 5.9780 95° East 551 634 35,900  Level FlightAware
04:18AM 40.7790 6.0950 94° East 551 634 35,900  Level FlightAware
04:19AM 40.7720 6.2070 95° East 551 634 35,900  Level FlightAware
04:20AM 40.7640 6.3450 94° East 550 633 35,900 60 Level FlightAware
04:20AM 40.7560 6.4780 94° East 551 634 36,000  Climbing FlightAware
04:21AM 40.7500 6.5810 94° East 551 634 35,900 -120 Descending FlightAware
04:21AM 40.7420 6.6970 95° East 552 635 35,900  Level FlightAware
04:22AM 40.7340 6.8150 95° East 552 635 35,900  Level FlightAware
04:23AM 40.7260 6.9460 95° East 553 636 35,900  Level FlightAware
04:23AM 40.7190 7.0500 95° East 553 636 35,900  Level FlightAware
04:24AM 40.7090 7.1650 97° East 552 635 35,900  Level FlightAware
04:24AM 40.6930 7.2820 100° East 552 635 35,900  Level FlightAware
04:25AM 40.6740 7.4140 101° East 554 638 35,900  Level FlightAware
04:25AM 40.6600 7.5150 100° East 554 638 35,900  Level FlightAware
04:26AM 40.6410 7.6290 102° East 553 636 35,900  Level FlightAware
04:27AM 40.6190 7.7600 102° East 553 636 35,900  Level FlightAware
04:27AM 40.6040 7.8570 101° East 553 636 35,900  Level FlightAware
04:28AM 40.5850 7.9710 102° East 553 636 35,900  Level FlightAware
04:28AM 40.5630 8.1030 102° East 553 636 35,900  Level FlightAware
04:29AM 40.5440 8.2210 102° East 554 638 35,900  Level FlightAware
04:30AM 40.5280 8.3210 102° East 553 636 35,900  Level FlightAware
04:30AM 40.5090 8.4350 102° East 553 636 35,900  Level FlightAware
04:31AM 40.4870 8.5670 102° East 551 634 35,900  Level FlightAware
04:31AM 40.4710 8.6640 102° East 551 634 35,900  Level FlightAware
04:32AM 40.4510 8.7770 103° East 550 633 35,900  Level FlightAware
04:33AM 40.4290 8.9090 102° East 550 633 35,900  Level FlightAware
04:33AM 40.4080 9.0250 103° East 550 633 35,900  Level FlightAware
04:34AM 40.3860 9.1540 103° East 552 635 35,900  Level FlightAware
04:34AM 40.3660 9.2680 103° East 553 636 35,900  Level FlightAware
04:35AM 40.3460 9.3820 103° East 553 636 35,900  Level FlightAware
04:36AM 40.3260 9.4990 103° East 554 638 35,900  Level FlightAware
04:36AM 40.3050 9.6120 104° East 554 638 35,900  Level FlightAware
04:37AM 40.2850 9.7280 103° East 557 641 35,900  Level FlightAware
04:37AM 40.2640 9.8420 104° East 557 641 35,900  Level FlightAware
04:38AM 40.2430 9.9570 103° East 558 642 35,900  Level FlightAware
04:38AM 40.2210 10.0750 104° East 558 642 35,900  Level FlightAware
04:39AM 40.2010 10.1890 103° East 558 642 35,900  Level FlightAware
04:40AM 40.1790 10.3040 104° East 559 643 35,900  Level FlightAware
04:40AM 40.1580 10.4210 103° East 558 642 35,900  Level FlightAware
04:41AM 40.1370 10.5330 104° East 558 642 35,900  Level FlightAware
04:41AM 40.1150 10.6490 104° East 559 643 35,900  Level FlightAware
04:42AM 40.0930 10.7620 104° East 557 641 35,900  Level FlightAware
04:43AM 40.0710 10.8770 104° East 557 641 35,900  Level FlightAware
04:43AM 40.0500 10.9870 104° East 558 642 35,900  Level FlightAware
04:44AM 40.0280 11.1010 104° East 558 642 35,900  Level FlightAware
04:44AM 40.0060 11.2190 104° East 559 643 35,900  Level FlightAware
04:45AM 39.9820 11.3390 105° East 559 643 35,900  Level FlightAware
04:46AM 39.9600 11.4550 104° East 557 641 35,900  Level FlightAware
04:46AM 39.9370 11.5670 105° East 556 640 35,900  Level FlightAware
04:47AM 39.9170 11.6730 104° East 554 638 35,900  Level FlightAware
04:47AM 39.8930 11.7900 105° East 552 635 35,900  Level FlightAware
04:48AM 39.8710 11.9000 105° East 552 635 35,900  Level FlightAware
04:48AM 39.8450 12.0130 107° East 550 633 35,900  Level FlightAware
04:49AM 39.8220 12.1160 106° East 548 631 35,900 240 Level FlightAware
04:50AM 39.7950 12.2370 106° East 548 631 36,200 780 Climbing FlightAware
04:50AM 39.7780 12.3600 100° East 546 628 36,900 540 Climbing FlightAware
04:51AM 39.7640 12.4600 100° East 548 631 36,900  Level FlightAware
04:51AM 39.7480 12.5760 100° East 549 632 36,900  Level FlightAware
04:52AM 39.7300 12.6950 101° East 549 632 36,900  Level FlightAware
04:52AM 39.7150 12.7900 102° East 548 631 36,900  Level FlightAware
04:53AM 39.6950 12.9180 101° East 548 631 36,900  Level FlightAware
04:54AM 39.6760 13.0340 102° East 547 629 36,900  Level FlightAware
04:54AM 39.6580 13.1480 102° East 545 627 36,900  Level FlightAware
04:55AM 39.6440 13.2460 100° East 544 626 36,900  Level FlightAware
04:55AM 39.6260 13.3690 101° East 543 625 36,900  Level FlightAware
04:56AM 39.6090 13.4820 101° East 544 626 36,900  Level FlightAware
04:57AM 39.5930 13.5840 101° East 542 624 36,900  Level FlightAware
04:57AM 39.5750 13.6990 101° East 541 623 36,900  Level FlightAware
04:58AM 39.5580 13.8130 101° East 541 623 36,900  Level FlightAware
04:58AM 39.5400 13.9280 101° East 541 623 36,900  Level FlightAware
04:59AM 39.5240 14.0310 101° East 541 623 36,900  Level FlightAware
05:00AM 39.5050 14.1510 102° East 542 624 36,900  Level FlightAware
05:00AM 39.4870 14.2650 102° East 542 624 36,900  Level FlightAware
05:01AM 39.4700 14.3670 102° East 540 621 36,900  Level FlightAware
05:01AM 39.4520 14.4810 102° East 540 621 36,900  Level FlightAware
05:02AM 39.4350 14.5910 101° East 540 621 36,900  Level FlightAware
05:02AM 39.4160 14.7060 102° East 540 621 36,900  Level FlightAware
05:03AM 39.3990 14.8090 102° East 540 621 36,900  Level FlightAware
05:03AM 39.3840 14.8980 102° East 540 621 36,900  Level FlightAware
05:04AM 39.3670 15.0050 102° East 539 620 36,900  Level FlightAware
05:05AM 39.3470 15.1240 102° East 540 621 36,900  Level FlightAware
05:05AM 39.3280 15.2340 103° East 540 621 36,900  Level FlightAware
05:06AM 39.3120 15.3320 102° East 541 623 36,900  Level FlightAware
05:06AM 39.2900 15.4610 102° East 541 623 36,900  Level FlightAware
05:07AM 39.2730 15.5610 102° East 541 623 36,900  Level FlightAware
05:08AM 39.2530 15.6750 103° East 541 623 36,900  Level FlightAware
05:08AM 39.2340 15.7890 102° East 542 624 36,900  Level FlightAware
05:09AM 39.2170 15.8840 103° East 542 624 36,900  Level FlightAware
05:09AM 39.1960 16.0020 103° East 542 624 36,900  Level FlightAware
05:10AM 39.1780 16.1090 102° East 543 625 36,900  Level FlightAware
05:11AM 39.1560 16.2300 103° East 543 625 36,900  Level FlightAware
05:11AM 39.1410 16.3170 103° East 544 626 36,900  Level FlightAware
05:12AM 39.1120 16.4790 103° East 546 628 36,900  Level FlightAware
05:13AM 39.0860 16.6200 103° East 546 628 36,900  Level FlightAware
05:13AM 39.0680 16.7200 103° East 547 629 36,900  Level FlightAware
05:14AM 39.0470 16.8360 103° East 548 631 36,900  Level FlightAware
05:14AM 39.0260 16.9520 103° East 549 632 36,900  Level FlightAware
05:15AM 39.0060 17.0500 105° East 549 632 36,900  Level FlightAware
05:15AM 38.9790 17.1710 106° East 551 634 36,900  Level FlightAware
05:16AM 38.9520 17.2830 107° East 552 635 36,900  Level FlightAware
05:17AM 38.9280 17.3860 107° East 553 636 36,900  Level FlightAware
05:17AM 38.9000 17.4980 108° East 553 636 36,900  Level FlightAware
05:18AM 38.8740 17.6040 107° East 554 638 36,900  Level FlightAware
05:18AM 38.8470 17.7150 107° East 555 639 36,900  Level FlightAware
05:19AM 38.8190 17.8310 107° East 555 639 36,900  Level FlightAware
05:20AM 38.7920 17.9380 108° East 555 639 36,900  Level FlightAware
05:20AM 38.7660 18.0430 108° East 555 639 36,900  Level FlightAware
05:21AM 38.7380 18.1560 108° East 557 641 36,900  Level FlightAware
05:21AM 38.7100 18.2680 108° East 556 640 36,900  Level FlightAware
05:22AM 38.6820 18.3800 108° East 556 640 36,900  Level FlightAware
05:22AM 38.6570 18.4820 107° East 557 641 36,900  Level FlightAware
05:23AM 38.6280 18.5940 108° East 559 643 36,900  Level FlightAware
05:24AM 38.6010 18.7010 108° East 559 643 36,900  Level FlightAware
05:24AM 38.5700 18.8210 108° East 560 644 36,900  Level FlightAware
05:25AM 38.5520 18.8900 108° East 559 643 36,900  Level FlightAware
05:26AM 38.5180 19.0220 108° East 559 643 36,900  Level FlightAware
05:26AM 38.4930 19.1180 108° East 559 643 36,900  Level FlightAware
05:27AM 38.4550 19.2540 110° East 561 646 36,900  Level FlightAware
05:27AM 38.4210 19.3850 108° East 563 648 36,900  Level FlightAware
05:28AM 38.3920 19.4800 111° Southeast 563 648 36,900  Level FlightAware
05:29AM 38.3530 19.6070 111° Southeast 563 648 36,900  Level FlightAware
05:29AM 38.3160 19.7260 112° Southeast 564 649 36,900  Level FlightAware
05:30AM 38.2770 19.8510 112° Southeast 564 649 36,900  Level FlightAware
05:31AM 38.2500 19.9390 111° Southeast 563 648 36,900  Level FlightAware
05:31AM 38.2110 20.0680 111° Southeast 564 649 36,900  Level FlightAware
05:32AM 38.1600 20.2340 111° Southeast 565 650 36,900  Level FlightAware
05:33AM 38.1150 20.3820 111° Southeast 565 650 36,900  Level FlightAware
05:34AM 38.0610 20.5540 112° Southeast 567 652 36,900  Level FlightAware
05:34AM 38.0220 20.6810 111° Southeast 567 652 36,900  Level FlightAware
05:35AM 37.9800 20.8120 112° Southeast 567 652 36,900  Level FlightAware
05:35AM 37.9510 20.9030 112° Southeast 568 654 36,900  Level FlightAware
05:36AM 37.9100 21.0300 112° Southeast 568 654 36,900  Level FlightAware
05:37AM 37.8770 21.1360 111° Southeast 570 656 36,900  Level FlightAware
05:37AM 37.8360 21.2640 112° Southeast 568 654 36,900  Level FlightAware
05:38AM 37.8000 21.3770 112° Southeast 568 654 36,900  Level FlightAware
05:39AM 37.7650 21.4850 112° Southeast 568 654 36,900  Level FlightAware
05:39AM 37.7310 21.5880 113° Southeast 568 654 36,900  Level FlightAware
05:40AM 37.6990 21.6870 112° Southeast 568 654 36,900  Level FlightAware
05:40AM 37.6610 21.8040 112° Southeast 569 655 36,900  Level FlightAware
05:41AM 37.6250 21.9120 113° Southeast 569 655 36,900  Level FlightAware
05:41AM 37.5940 22.0060 113° Southeast 570 656 36,900  Level FlightAware
05:42AM 37.5540 22.1290 112° Southeast 570 656 36,900  Level FlightAware
05:43AM 37.5210 22.2290 113° Southeast 569 655 36,900  Level FlightAware
05:43AM 37.4850 22.3370 113° Southeast 569 655 36,900  Level FlightAware
05:44AM 37.4480 22.4470 113° Southeast 570 656 36,900  Level FlightAware
05:44AM 37.4140 22.5500 113° Southeast 570 656 36,900  Level FlightAware
05:45AM 37.3760 22.6620 113° Southeast 572 658 36,900  Level FlightAware
05:46AM 37.3390 22.7720 113° Southeast 572 658 36,900  Level FlightAware
05:46AM 37.3030 22.8770 113° Southeast 571 657 36,900  Level FlightAware
05:47AM 37.2710 22.9710 113° Southeast 570 656 36,900  Level FlightAware
05:47AM 37.2310 23.0890 113° Southeast 572 658 36,900  Level FlightAware
05:48AM 37.1920 23.2000 114° Southeast 572 658 36,900  Level FlightAware
05:49AM 37.1560 23.3060 113° Southeast 571 657 36,900  Level FlightAware
05:49AM 37.1230 23.4010 114° Southeast 570 656 36,900  Level FlightAware
05:50AM 37.0830 23.5170 113° Southeast 571 657 36,900  Level FlightAware
05:50AM 37.0470 23.6210 113° Southeast 570 656 36,900  Level FlightAware
05:51AM 37.0070 23.7340 114° Southeast 569 655 36,900  Level FlightAware
05:51AM 36.9730 23.8320 113° Southeast 570 656 36,900  Level FlightAware
05:52AM 36.9350 23.9410 114° Southeast 571 657 36,900  Level FlightAware
05:53AM 36.8970 24.0480 114° Southeast 571 657 36,900  Level FlightAware
05:53AM 36.8630 24.1430 114° Southeast 570 656 36,900  Level FlightAware
05:54AM 36.8280 24.2420 114° Southeast 571 657 36,900  Level FlightAware
05:54AM 36.7850 24.3610 114° Southeast 571 657 36,900  Level FlightAware
05:55AM 36.7530 24.4500 114° Southeast 570 656 36,900  Level FlightAware
05:55AM 36.7120 24.5650 114° Southeast 570 656 36,900  Level FlightAware
05:56AM 36.6740 24.6720 114° Southeast 571 657 36,900  Level FlightAware
05:57AM 36.6340 24.7820 114° Southeast 571 657 36,900  Level FlightAware
05:57AM 36.6010 24.8730 114° Southeast 571 657 36,900  Level FlightAware
05:58AM 36.5560 24.9960 114° Southeast 570 656 36,900  Level FlightAware
05:58AM 36.5230 25.0860 115° Southeast 570 656 36,900  Level FlightAware
05:59AM 36.4870 25.1860 114° Southeast 569 655 36,900  Level FlightAware
05:59AM 36.4490 25.2880 115° Southeast 569 655 36,900  Level FlightAware
06:00AM 36.4070 25.4010 115° Southeast 568 654 36,900  Level FlightAware
06:01AM 36.3700 25.5020 114° Southeast 568 654 36,900  Level FlightAware
06:01AM 36.3280 25.6130 115° Southeast 567 652 36,900  Level FlightAware
06:02AM 36.2890 25.7180 115° Southeast 568 654 36,900  Level FlightAware
06:02AM 36.2530 25.8150 115° Southeast 567 652 36,900  Level FlightAware
06:03AM 36.2110 25.9270 115° Southeast 567 652 36,900  Level FlightAware
06:04AM 36.1720 26.0320 115° Southeast 567 652 36,900  Level FlightAware
06:04AM 36.1360 26.1260 115° Southeast 566 651 36,900  Level FlightAware
06:05AM 36.0950 26.2330 115° Southeast 567 652 36,900  Level FlightAware
06:05AM 36.0550 26.3390 115° Southeast 567 652 36,900  Level FlightAware
06:06AM 36.0170 26.4380 115° Southeast 568 654 36,900  Level FlightAware
06:07AM 35.9810 26.5330 115° Southeast 566 651 36,900  Level FlightAware
06:07AM 35.9400 26.6410 115° Southeast 564 649 36,900  Level FlightAware
06:08AM 35.9000 26.7440 116° Southeast 565 650 36,900  Level FlightAware
06:08AM 35.8640 26.8380 115° Southeast 565 650 36,900  Level FlightAware
06:09AM 35.8300 26.9270 115° Southeast 565 650 36,900  Level FlightAware
06:10AM 35.7970 27.0170 114° Southeast 565 650 36,900  Level FlightAware
06:10AM 35.7620 27.1090 115° Southeast 565 650 36,900  Level FlightAware
06:11AM 35.7390 27.1680 116° Southeast 565 650 36,900  Level FlightAware
06:11AM 35.6500 27.3850 117° Southeast 561 646 36,900  Level FlightAware
06:12AM 35.6140 27.4760 116° Southeast 563 648 36,900  Level FlightAware
06:13AM 35.5790 27.5680 115° Southeast 563 648 36,900  Level FlightAware
06:13AM 35.5450 27.6560 115° Southeast 563 648 36,900  Level FlightAware
06:14AM 35.5120 27.7450 114° Southeast 563 648 36,900  Level FlightAware
06:14AM 35.4780 27.8340 115° Southeast 563 648 36,900  Level FlightAware
06:15AM 35.4430 27.9250 115° Southeast 563 648 36,900  Level FlightAware
06:16AM 35.4100 28.0140 114° Southeast 563 648 36,900  Level FlightAware
06:16AM 35.3760 28.1020 115° Southeast 563 648 36,900  Level FlightAware
06:17AM 35.3420 28.1910 115° Southeast 563 648 36,900  Level FlightAware
06:18AM 35.2360 28.4220 119° Southeast 565 650 36,900  Level FlightAware
06:18AM 35.2030 28.5110 114° Southeast 565 650 36,900  Level FlightAware
06:19AM 35.1490 28.6320 119° Southeast 565 650 36,900  Level FlightAware
06:20AM 35.0960 28.7670 116° Southeast 566 651 36,900  Level FlightAware
06:20AM 35.0410 28.8960 117° Southeast 570 656 36,900  Level FlightAware
06:21AM 35.0080 28.9760 117° Southeast 570 656 36,900  Level FlightAware
06:21AM 34.9610 29.0930 116° Southeast 570 656 36,900  Level FlightAware
06:22AM 34.9250 29.1820 116° Southeast 570 656 36,900  Level FlightAware
06:23AM 34.8900 29.2700 116° Southeast 570 656 36,900  Level FlightAware
06:23AM 34.8540 29.3590 116° Southeast 570 656 36,900  Level FlightAware
06:24AM 34.7770 29.5310 119° Southeast 568 654 36,900  Level FlightAware
06:24AM 34.7410 29.6160 117° Southeast 567 652 36,900  Level FlightAware
06:25AM 34.6950 29.7260 117° Southeast 566 651 36,900  Level FlightAware
06:26AM 34.6510 29.8310 117° Southeast 565 650 36,900  Level FlightAware
06:26AM 34.6090 29.9320 117° Southeast 565 650 36,900  Level FlightAware
06:27AM 34.5710 30.0120 120° Southeast 713 821 36,900  Level FlightAware
06:28AM 34.5220 30.1180 119° Southeast 559 643 36,900  Level FlightAware
06:28AM 34.4660 30.2290 121° Southeast 559 643 36,900  Level FlightAware
06:29AM 34.4140 30.3370 120° Southeast 558 642 36,900  Level FlightAware
06:29AM 34.3660 30.4360 120° Southeast 558 642 36,900  Level FlightAware
06:30AM 34.3150 30.5430 120° Southeast 558 642 36,900  Level FlightAware
06:30AM 34.2770 30.6240 120° Southeast 557 641 36,900  Level FlightAware
06:31AM 34.2240 30.7330 120° Southeast 556 640 36,900  Level FlightAware
06:32AM 34.1770 30.8300 120° Southeast 555 639 36,900  Level FlightAware
06:32AM 34.1390 30.9090 120° Southeast 555 639 36,900  Level FlightAware
06:33AM 34.0920 31.0070 120° Southeast 554 638 36,900  Level FlightAware
06:33AM 34.0440 31.1040 121° Southeast 554 638 36,900  Level FlightAware
06:34AM 34.0020 31.1920 120° Southeast 552 635 36,900  Level FlightAware
06:35AM 33.9540 31.2900 121° Southeast 550 633 36,900  Level FlightAware
06:35AM 33.9080 31.3830 121° Southeast 549 632 36,900  Level FlightAware
06:36AM 33.8630 31.4750 120° Southeast 547 629 36,900  Level FlightAware
06:36AM 33.8170 31.5670 121° Southeast 547 629 36,900  Level FlightAware
06:37AM 33.7720 31.6580 121° Southeast 545 627 36,900  Level FlightAware
06:38AM 33.7250 31.7540 120° Southeast 544 626 36,900  Level FlightAware
06:38AM 33.6720 31.8610 121° Southeast 543 625 36,900  Level FlightAware
06:39AM 33.6280 31.9480 121° Southeast 542 624 36,900  Level FlightAware
06:39AM 33.5850 32.0350 121° Southeast 540 621 36,900  Level FlightAware
06:40AM 33.5400 32.1250 121° Southeast 540 621 36,900  Level FlightAware
06:41AM 33.4850 32.2350 121° Southeast 540 621 36,900  Level FlightAware
06:41AM 33.4500 32.3050 121° Southeast 539 620 36,900  Level FlightAware
06:42AM 33.4030 32.3970 121° Southeast 542 624 36,900  Level FlightAware
06:42AM 33.3550 32.4930 121° Southeast 543 625 36,900 -420 Level FlightAware
06:43AM 33.3000 32.6020 121° Southeast 540 621 36,400 -1,020 Descending FlightAware
06:44AM 33.2540 32.6910 122° Southeast 542 624 35,600 -1,980 Descending FlightAware
06:44AM 33.2040 32.7910 121° Southeast 542 624 34,000 -3,360 Descending FlightAware
06:45AM 33.1510 32.8940 122° Southeast 557 641 31,400 -3,600 Descending FlightAware
06:45AM 33.1080 32.9800 121° Southeast 550 633 29,800 -2,700 Descending FlightAware
06:46AM 33.0590 33.0750 122° Southeast 539 620 28,300 -2,580 Descending FlightAware
06:47AM 33.0210 33.1490 121° Southeast 532 612 27,000 -2,460 Descending FlightAware
06:47AM 32.9670 33.2520 122° Southeast 515 593 25,400 -2,400 Descending FlightAware
06:48AM 32.9220 33.3390 122° Southeast 501 577 23,900 -2,400 Descending FlightAware
06:48AM 32.8840 33.4130 121° Southeast 488 562 22,700 -2,280 Descending FlightAware
06:49AM 32.8430 33.4920 122° Southeast 474 545 21,400 -2,220 Descending FlightAware
06:50AM 32.8000 33.5740 122° Southeast 460 529 20,100 -2,160 Descending FlightAware
06:50AM 32.7670 33.6380 122° Southeast 448 516 19,000 -2,100 Descending FlightAware
06:51AM 32.7300 33.7080 122° Southeast 435 501 17,900 -2,040 Descending FlightAware
06:51AM 32.6880 33.7890 122° Southeast 437 503 16,500 -1,980 Descending FlightAware
06:52AM 32.6380 33.8850 122° Southeast 415 478 15,000 -1,920 Descending FlightAware
06:53AM 32.6010 33.9560 122° Southeast 397 457 13,800 -1,320 Descending FlightAware
06:54AM 32.5520 34.0490 122° Southeast 396 456 13,000 -1,860 Descending FlightAware
06:54AM 32.5120 34.1240 122° Southeast 380 437 11,000 -1,980 Descending FlightAware
06:55AM 32.4680 34.1850 131° Southeast 338 389 10,500 -420 Descending FlightAware
06:56AM 32.4310 34.2300 134° Southeast 338 389 10,500  Level FlightAware
06:56AM 32.3980 34.2710 134° Southeast 338 389 10,500  Level FlightAware
06:57AM 32.3640 34.3120 134° Southeast 338 389 10,500  Level FlightAware
06:59AM 32.1999 34.5202 126° Southeast  Level FlightAware Approximate
07:00AM 32.1110 34.6540 125° Southeast  Level FlightAware Approximate
07:01AM 32.0392 34.8013 125° Southeast  Level FlightAware Approximate
07:02AM 32.0000 34.8667 125° Southeast  Level FlightAware Approximate
07:03AM 32.0095 34.8769 125° Southeast  Level Estimated
07:04AM 32.0095 34.8769 125° Southeast  Level Estimated
07:05AM 32.0095 34.8769 125° Southeast  Level Estimated
07:06AM 32.0095 34.8769 125° Southeast  Level Estimated
07:07AM 32.0095 34.8769 125° Southeast  Level Estimated
07:08AM 32.0095 34.8769 125° Southeast  Level Estimated
07:09AM 32.0095 34.8769 125° Southeast  Level Estimated
07:10AM 32.0095 34.8769 125° Southeast  Level Estimated